createdAt,value
2023-01-19T00:00:41.675Z,0.40
2023-01-19T00:03:15.832Z,0.43
2023-01-19T00:05:43.882Z,0.50
2023-01-19T00:08:17.612Z,0.32
2023-01-19T00:10:46.167Z,0.55
2023-01-19T00:13:13.459Z,0.55
2023-01-19T00:15:40.673Z,0.30
2023-01-19T00:18:09.807Z,0.40
2023-01-19T00:20:38.282Z,0.40
2023-01-19T00:23:07.511Z,0.40
2023-01-19T00:25:34.742Z,0.50
2023-01-19T00:28:02.363Z,0.90
2023-01-19T00:30:29.745Z,0.45
2023-01-19T00:32:57.337Z,0.50
2023-01-19T00:35:24.738Z,0.80
2023-01-19T00:37:51.930Z,0.60
2023-01-19T00:40:19.230Z,0.60
2023-01-19T00:42:48.319Z,0.52
2023-01-19T00:45:18.545Z,0.68
2023-01-19T00:47:46.080Z,0.70
2023-01-19T00:50:14.386Z,0.80
2023-01-19T00:52:42.084Z,0.60
2023-01-19T00:55:09.916Z,0.80
2023-01-19T00:57:37.354Z,0.63
2023-01-19T01:00:06.405Z,0.52
2023-01-19T01:02:34.162Z,0.60
2023-01-19T01:05:03.395Z,0.65
2023-01-19T01:07:31.074Z,0.50
2023-01-19T01:09:58.409Z,0.50
2023-01-19T01:12:25.902Z,0.95
2023-01-19T01:14:53.210Z,0.63
2023-01-19T01:17:24.901Z,0.40
2023-01-19T01:19:52.462Z,0.50
2023-01-19T01:22:19.655Z,1.05
2023-01-19T01:24:46.863Z,0.82
2023-01-19T01:27:13.991Z,0.77
2023-01-19T01:29:46.394Z,1.17
2023-01-19T01:32:14.527Z,0.85
2023-01-19T01:34:41.689Z,0.65
2023-01-19T01:37:09.220Z,0.60
2023-01-19T01:39:36.796Z,0.73
2023-01-19T01:42:04.538Z,0.95
2023-01-19T01:44:50.154Z,0.57
2023-01-19T01:47:23.586Z,0.85
2023-01-19T01:49:54.575Z,0.70
2023-01-19T01:52:22.965Z,1.30
2023-01-19T01:54:50.387Z,1.17
2023-01-19T01:57:17.609Z,0.70
2023-01-19T01:59:47.778Z,0.50
2023-01-19T02:02:42.003Z,0.88
2023-01-19T02:05:11.365Z,0.60
2023-01-19T02:08:15.571Z,0.80
2023-01-19T02:11:02.521Z,0.40
2023-01-19T02:13:34.793Z,0.70
2023-01-19T02:16:03.342Z,0.68
2023-01-19T02:18:32.280Z,0.60
2023-01-19T02:20:59.689Z,0.50
2023-01-19T02:23:31.866Z,0.47
2023-01-19T02:25:59.563Z,0.70
2023-01-19T02:28:27.514Z,0.85
2023-01-19T02:30:54.782Z,0.70
2023-01-19T02:33:22.026Z,0.60
2023-01-19T02:35:50.761Z,0.90
2023-01-19T02:38:19.620Z,0.85
2023-01-19T02:40:47.496Z,0.90
2023-01-19T02:43:15.561Z,0.88
2023-01-19T02:45:43.834Z,1.00
2023-01-19T02:48:11.322Z,0.90
2023-01-19T02:50:49.811Z,0.65
2023-01-19T02:53:20.080Z,0.60
2023-01-19T02:55:50.696Z,0.70
2023-01-19T02:58:34.402Z,0.75
2023-01-19T03:01:05.282Z,0.90
2023-01-19T03:03:43.900Z,0.70
2023-01-19T03:06:20.118Z,1.20
2023-01-19T03:08:50.247Z,0.80
2023-01-19T03:11:17.490Z,0.80
2023-01-19T03:14:04.669Z,1.23
2023-01-19T03:16:47.422Z,1.00
2023-01-19T03:21:44.218Z,0.82
2023-01-19T03:24:12.712Z,0.98
2023-01-19T03:26:43.040Z,0.90
2023-01-19T03:29:12.188Z,0.65
2023-01-19T03:31:40.177Z,0.60
2023-01-19T03:34:08.620Z,0.80
2023-01-19T03:36:37.340Z,1.27
2023-01-19T03:39:05.957Z,0.80
2023-01-19T03:41:34.393Z,0.90
2023-01-19T03:44:02.113Z,0.80
2023-01-19T03:46:29.563Z,0.60
2023-01-19T03:48:58.409Z,0.77
2023-01-19T03:51:25.572Z,0.85
2023-01-19T03:53:52.902Z,0.90
2023-01-19T03:56:20.031Z,1.00
2023-01-19T03:58:47.338Z,0.90
2023-01-19T04:01:15.269Z,0.80
2023-01-19T04:03:43.054Z,0.77
2023-01-19T04:06:10.930Z,0.70
2023-01-19T04:08:38.079Z,0.98
2023-01-19T04:11:05.351Z,0.75
2023-01-19T04:13:32.549Z,0.73
2023-01-19T04:16:01.178Z,1.25
2023-01-19T04:18:29.320Z,0.77
2023-01-19T04:20:56.523Z,1.30
2023-01-19T04:23:24.037Z,0.80
2023-01-19T04:25:51.202Z,0.80
2023-01-19T04:28:18.363Z,0.95
2023-01-19T04:30:45.669Z,1.40
2023-01-19T04:33:12.848Z,1.02
2023-01-19T04:35:40.077Z,1.30
2023-01-19T04:38:07.196Z,0.85
2023-01-19T04:40:34.346Z,0.68
2023-01-19T04:43:01.988Z,0.85
2023-01-19T04:45:29.317Z,1.10
2023-01-19T04:47:56.459Z,1.02
2023-01-19T04:50:23.670Z,1.08
2023-01-19T04:52:51.199Z,1.00
2023-01-19T04:55:18.487Z,0.80
2023-01-19T04:57:45.934Z,0.95
2023-01-19T05:00:13.391Z,0.80
2023-01-19T05:02:42.687Z,1.33
2023-01-19T05:05:10.001Z,0.82
2023-01-19T05:07:37.225Z,1.13
2023-01-19T05:10:04.872Z,1.35
2023-01-19T05:12:32.193Z,1.20
2023-01-19T05:14:59.575Z,1.00
2023-01-19T05:17:26.705Z,1.02
2023-01-19T05:19:53.813Z,0.70
2023-01-19T05:22:20.989Z,1.30
2023-01-19T05:24:48.195Z,1.10
2023-01-19T05:27:15.382Z,0.95
2023-01-19T05:29:42.529Z,1.35
2023-01-19T05:32:09.769Z,0.98
2023-01-19T05:34:37.113Z,1.10
2023-01-19T05:37:04.250Z,1.25
2023-01-19T05:39:31.454Z,1.15
2023-01-19T05:41:58.605Z,1.10
2023-01-19T05:44:25.773Z,0.90
2023-01-19T05:46:53.408Z,1.20
2023-01-19T05:49:20.563Z,1.00
2023-01-19T05:51:47.725Z,0.90
2023-01-19T05:54:15.575Z,1.50
2023-01-19T05:56:42.962Z,0.93
2023-01-19T05:59:10.480Z,1.10
2023-01-19T06:01:39.881Z,0.77
2023-01-19T06:04:07.530Z,1.10
2023-01-19T06:06:34.803Z,1.05
2023-01-19T06:09:02.443Z,1.25
2023-01-19T06:11:29.672Z,1.30
2023-01-19T06:13:56.978Z,1.05
2023-01-19T06:16:24.171Z,1.10
2023-01-19T06:18:51.801Z,1.50
2023-01-19T06:21:18.985Z,1.00
2023-01-19T06:23:46.173Z,1.45
2023-01-19T06:26:13.612Z,0.98
2023-01-19T06:28:40.895Z,1.30
2023-01-19T06:31:08.156Z,1.77
2023-01-19T06:33:35.435Z,1.20
2023-01-19T06:36:02.716Z,1.10
2023-01-19T06:38:29.943Z,0.95
2023-01-19T06:41:03.300Z,1.30
2023-01-19T06:43:31.365Z,1.17
2023-01-19T06:46:00.465Z,1.45
2023-01-19T06:48:27.943Z,1.05
2023-01-19T06:50:57.196Z,1.00
2023-01-19T06:53:27.895Z,2.22
2023-01-19T06:55:58.735Z,1.30
2023-01-19T06:58:26.052Z,1.25
2023-01-19T07:00:53.590Z,1.20
2023-01-19T07:03:22.058Z,1.10
2023-01-19T07:05:53.489Z,0.88
2023-01-19T07:08:20.705Z,0.65
2023-01-19T07:11:26.362Z,1.02
2023-01-19T07:13:36.156Z,1.23
2023-01-19T07:16:08.211Z,0.80
2023-01-19T07:18:35.726Z,0.70
2023-01-19T07:21:03.030Z,0.77
2023-01-19T07:23:30.785Z,1.02
2023-01-19T07:25:58.554Z,0.85
2023-01-19T07:28:25.855Z,1.00
2023-01-19T07:30:53.811Z,1.00
2023-01-19T07:33:25.850Z,1.30
2023-01-19T07:35:53.614Z,1.13
2023-01-19T07:38:21.241Z,1.80
2023-01-19T07:40:48.502Z,1.48
2023-01-19T07:43:16.025Z,1.30
2023-01-19T07:45:43.632Z,0.85
2023-01-19T07:48:10.906Z,1.00
2023-01-19T07:50:38.061Z,0.77
2023-01-19T07:53:06.327Z,0.93
2023-01-19T07:55:33.590Z,0.70
2023-01-19T07:58:00.789Z,0.90
2023-01-19T08:00:28.014Z,1.08
2023-01-19T08:02:59.682Z,0.93
2023-01-19T08:05:29.211Z,0.80
2023-01-19T08:07:57.589Z,0.70
2023-01-19T08:10:28.370Z,0.52
2023-01-19T08:12:56.348Z,0.80
2023-01-19T08:15:24.598Z,0.75
2023-01-19T08:18:01.855Z,0.70
2023-01-19T08:20:29.909Z,0.60
2023-01-19T08:23:01.401Z,0.80
2023-01-19T08:25:44.311Z,0.77
2023-01-19T08:28:12.330Z,0.88
2023-01-19T08:30:40.392Z,0.77
2023-01-19T08:33:10.744Z,0.85
2023-01-19T08:35:39.093Z,0.70
2023-01-19T08:38:06.643Z,0.73
2023-01-19T08:40:35.120Z,1.00
2023-01-19T08:43:07.674Z,0.68
2023-01-19T08:48:02.305Z,1.00
2023-01-19T08:50:30.709Z,0.75
2023-01-19T08:52:58.982Z,0.85
2023-01-19T08:55:26.813Z,0.90
2023-01-19T08:57:54.342Z,0.52
2023-01-19T09:00:22.477Z,0.80
2023-01-19T09:02:49.744Z,0.60
2023-01-19T09:05:16.962Z,0.80
2023-01-19T09:07:45.662Z,0.68
2023-01-19T09:10:12.932Z,0.90
2023-01-19T09:12:40.158Z,0.88
2023-01-19T09:15:07.653Z,1.08
2023-01-19T09:17:34.839Z,0.85
2023-01-19T09:20:02.035Z,0.90
2023-01-19T09:22:29.336Z,0.93
2023-01-19T09:24:56.554Z,1.20
2023-01-19T09:27:24.240Z,0.85
2023-01-19T09:29:54.487Z,0.80
2023-01-19T09:32:22.948Z,0.60
2023-01-19T09:34:50.221Z,0.88
2023-01-19T09:37:17.661Z,1.00
2023-01-19T09:39:44.887Z,0.95
2023-01-19T09:42:31.238Z,0.90
2023-01-19T09:44:58.448Z,0.80
2023-01-19T09:47:27.367Z,1.20
2023-01-19T09:49:58.782Z,0.75
2023-01-19T09:52:25.976Z,0.80
2023-01-19T09:54:56.328Z,1.55
2023-01-19T09:57:24.609Z,1.27
2023-01-19T09:59:51.931Z,1.00
2023-01-19T10:02:35.648Z,0.60
2023-01-19T10:05:03.735Z,0.80
2023-01-19T10:07:33.665Z,0.65
2023-01-19T10:10:00.783Z,0.82
2023-01-19T10:12:50.883Z,0.60
2023-01-19T10:15:18.042Z,0.55
2023-01-19T10:17:48.310Z,1.40
2023-01-19T10:20:26.774Z,1.50
2023-01-19T10:22:54.144Z,1.77
2023-01-19T10:25:25.544Z,2.00
2023-01-19T10:27:52.797Z,1.25
2023-01-19T10:30:23.253Z,2.58
2023-01-19T10:32:51.317Z,1.95
2023-01-19T10:35:25.017Z,1.13
2023-01-19T10:37:56.951Z,1.23
2023-01-19T10:40:27.159Z,1.13
2023-01-19T10:42:54.806Z,0.70
2023-01-19T10:45:23.814Z,0.70
2023-01-19T10:47:52.772Z,0.80
2023-01-19T10:50:25.861Z,0.80
2023-01-19T10:52:54.693Z,1.00
2023-01-19T10:55:40.852Z,0.80
2023-01-19T10:58:27.041Z,0.90
2023-01-19T11:00:54.397Z,0.90
2023-01-19T11:03:21.751Z,0.82
2023-01-19T11:05:49.089Z,0.93
2023-01-19T11:08:22.725Z,0.82
2023-01-19T11:10:55.238Z,1.20
2023-01-19T11:13:22.499Z,0.65
2023-01-19T11:15:54.317Z,0.90
2023-01-19T11:18:32.335Z,1.00
2023-01-19T11:21:10.552Z,0.90
2023-01-19T11:23:43.075Z,0.57
2023-01-19T11:26:15.784Z,0.60
2023-01-19T11:31:12.271Z,0.52
2023-01-19T11:33:43.690Z,0.65
2023-01-19T11:36:16.948Z,0.50
2023-01-19T11:38:45.459Z,0.60
2023-01-19T11:41:17.798Z,0.55
2023-01-19T11:43:49.236Z,0.60
2023-01-19T11:46:17.094Z,0.70
2023-01-19T11:48:47.580Z,0.90
2023-01-19T11:51:17.025Z,0.70
2023-01-19T11:53:46.956Z,1.35
2023-01-19T11:56:14.866Z,1.25
2023-01-19T11:58:44.344Z,1.40
2023-01-19T12:01:24.760Z,1.45
2023-01-19T12:04:04.880Z,1.58
2023-01-19T12:06:34.081Z,1.10
2023-01-19T12:09:03.628Z,0.95
2023-01-19T12:11:33.798Z,1.00
2023-01-19T12:14:01.471Z,1.20
2023-01-19T12:16:32.997Z,0.90
2023-01-19T12:19:02.315Z,0.77
2023-01-19T12:21:29.518Z,0.93
2023-01-19T12:24:02.860Z,1.10
2023-01-19T12:26:33.493Z,0.90
2023-01-19T12:29:04.623Z,1.10
2023-01-19T12:31:32.105Z,1.08
2023-01-19T12:34:19.267Z,1.17
2023-01-19T12:36:46.491Z,1.10
2023-01-19T12:39:23.485Z,1.35
2023-01-19T12:42:05.742Z,1.20
2023-01-19T12:44:34.347Z,1.23
2023-01-19T12:47:20.010Z,0.95
2023-01-19T12:49:51.817Z,1.20
2023-01-19T12:52:39.286Z,1.03
2023-01-19T12:55:15.323Z,0.82
2023-01-19T12:57:57.543Z,1.05
2023-01-19T13:00:24.697Z,1.02
2023-01-19T13:02:59.038Z,1.10
2023-01-19T13:05:33.408Z,0.60
2023-01-19T13:08:04.864Z,0.80
2023-01-19T13:10:50.867Z,1.02
2023-01-19T13:13:22.707Z,0.75
2023-01-19T13:15:50.962Z,48.95
2023-01-19T13:18:22.338Z,0.75
2023-01-19T13:21:01.755Z,0.70
2023-01-19T13:23:30.123Z,0.93
2023-01-19T13:26:03.155Z,0.80
2023-01-19T13:28:36.539Z,1.20
2023-01-19T13:31:05.066Z,0.85
2023-01-19T13:33:40.558Z,1.10
2023-01-19T13:36:16.742Z,0.75
2023-01-19T13:38:44.031Z,0.70
2023-01-19T13:41:15.357Z,0.90
2023-01-19T13:43:43.102Z,1.27
2023-01-19T13:46:12.252Z,0.93
2023-01-19T13:48:39.665Z,1.75
2023-01-19T13:51:08.435Z,1.00
2023-01-19T13:53:36.540Z,1.00
2023-01-19T13:56:21.804Z,0.68
2023-01-19T13:59:02.227Z,0.80
2023-01-19T14:01:31.231Z,1.52
2023-01-19T14:03:58.926Z,0.93
2023-01-19T14:06:32.606Z,1.00
2023-01-19T14:09:06.981Z,1.02
2023-01-19T14:11:34.214Z,7.93
2023-01-19T14:14:01.581Z,2.38
2023-01-19T14:16:28.930Z,1.35
2023-01-19T14:19:04.575Z,1.17
2023-01-19T14:21:41.393Z,1.13
2023-01-19T14:24:08.778Z,1.10
2023-01-19T14:26:39.125Z,1.05
2023-01-19T14:29:25.305Z,1.15
2023-01-19T14:32:01.484Z,1.38
2023-01-19T14:34:32.965Z,1.35
2023-01-19T14:37:01.068Z,1.38
2023-01-19T14:39:30.070Z,1.30
2023-01-19T14:41:59.516Z,1.40
2023-01-19T14:44:31.410Z,1.33
2023-01-19T14:46:59.592Z,1.25
2023-01-19T14:49:32.502Z,1.50
2023-01-19T14:52:02.862Z,1.80
2023-01-19T14:54:32.229Z,2.17
2023-01-19T14:56:59.489Z,2.35
2023-01-19T14:59:26.641Z,1.60
2023-01-19T15:01:53.932Z,1.65
2023-01-19T15:04:21.212Z,1.75
2023-01-19T15:06:48.752Z,0.95
2023-01-19T15:09:16.523Z,1.13
2023-01-19T15:11:45.053Z,0.98
2023-01-19T15:14:14.104Z,1.13
2023-01-19T15:16:41.740Z,1.20
2023-01-19T15:19:12.808Z,1.23
2023-01-19T15:21:43.116Z,1.40
2023-01-19T15:24:10.797Z,1.25
2023-01-19T15:26:42.651Z,1.15
2023-01-19T15:29:24.143Z,1.17
2023-01-19T15:31:51.608Z,1.17
2023-01-19T15:34:19.102Z,1.13
2023-01-19T15:36:46.255Z,0.82
2023-01-19T15:39:13.393Z,1.33
2023-01-19T15:41:40.670Z,0.88
2023-01-19T15:44:09.205Z,1.00
2023-01-19T15:46:36.440Z,1.73
2023-01-19T15:49:05.642Z,1.55
2023-01-19T15:51:33.209Z,1.58
2023-01-19T15:54:00.491Z,1.40
2023-01-19T15:56:29.267Z,2.35
2023-01-19T15:58:56.930Z,2.15
2023-01-19T16:01:31.384Z,2.20
2023-01-19T16:04:00.677Z,1.58
2023-01-19T16:06:28.262Z,1.70
2023-01-19T16:08:59.651Z,1.67
2023-01-19T16:11:26.948Z,1.15
2023-01-19T16:13:54.181Z,1.10
2023-01-19T16:16:23.323Z,1.52
2023-01-19T16:18:50.571Z,1.20
2023-01-19T16:21:18.120Z,0.70
2023-01-19T16:23:45.365Z,0.90
2023-01-19T16:26:23.914Z,1.10
2023-01-19T16:28:51.166Z,0.93
2023-01-19T16:31:18.439Z,14.82
2023-01-19T16:33:45.919Z,50.55
2023-01-19T16:36:23.655Z,41.45
2023-01-19T16:38:51.052Z,34.50
2023-01-19T16:41:18.714Z,11.90
2023-01-19T16:43:50.849Z,29.45
2023-01-19T16:46:37.477Z,45.80
2023-01-19T16:49:06.211Z,25.60
2023-01-19T16:51:33.639Z,6.00
2023-01-19T16:54:00.908Z,3.13
2023-01-19T16:56:28.103Z,6.25
2023-01-19T16:58:55.758Z,38.33
2023-01-19T17:01:23.615Z,25.17
2023-01-19T17:03:50.865Z,16.88
2023-01-19T17:06:20.131Z,15.18
2023-01-19T17:08:47.750Z,3.70
2023-01-19T17:11:20.418Z,2.40
2023-01-19T17:13:48.325Z,2.70
2023-01-19T17:16:15.660Z,2.50
2023-01-19T17:18:42.949Z,1.90
2023-01-19T17:21:10.813Z,2.22
2023-01-19T17:23:38.259Z,1.90
2023-01-19T17:26:05.859Z,1.75
2023-01-19T17:28:33.233Z,1.75
2023-01-19T17:31:19.904Z,2.45
2023-01-19T17:33:48.763Z,2.03
2023-01-19T17:36:17.071Z,1.52
2023-01-19T17:38:44.273Z,1.40
2023-01-19T17:41:15.510Z,1.73
2023-01-19T17:43:43.127Z,1.10
2023-01-19T17:46:10.757Z,2.95
2023-01-19T17:48:38.366Z,1.20
2023-01-19T17:51:09.865Z,1.50
2023-01-19T17:53:37.763Z,1.38
2023-01-19T17:56:09.120Z,1.35
2023-01-19T17:58:36.586Z,1.35
2023-01-19T18:01:11.438Z,1.58
2023-01-19T18:03:39.089Z,1.60
2023-01-19T18:06:06.480Z,1.58
2023-01-19T18:08:34.692Z,1.48
2023-01-19T18:11:02.242Z,1.52
2023-01-19T18:13:29.838Z,1.90
2023-01-19T18:16:00.982Z,2.25
2023-01-19T18:18:28.625Z,1.80
2023-01-19T18:21:02.502Z,2.58
2023-01-19T18:23:29.833Z,1.95
2023-01-19T18:26:04.516Z,2.10
2023-01-19T18:28:31.772Z,2.28
2023-01-19T18:30:59.198Z,1.55
2023-01-19T18:33:27.576Z,2.30
2023-01-19T18:35:55.062Z,1.73
2023-01-19T18:38:22.429Z,1.75
2023-01-19T18:40:49.609Z,1.42
2023-01-19T18:43:16.845Z,1.45
2023-01-19T18:45:48.034Z,1.60
2023-01-19T18:48:17.381Z,1.60
2023-01-19T18:50:45.130Z,1.58
2023-01-19T18:53:12.353Z,1.58
2023-01-19T18:55:39.537Z,2.15
2023-01-19T18:58:07.119Z,1.85
2023-01-19T19:00:34.310Z,2.80
2023-01-19T19:03:01.580Z,2.45
2023-01-19T19:05:28.938Z,2.25
2023-01-19T19:07:56.068Z,1.10
2023-01-19T19:10:23.235Z,1.58
2023-01-19T19:12:50.405Z,1.60
2023-01-19T19:15:17.642Z,1.50
2023-01-19T19:17:44.785Z,1.70
2023-01-19T19:20:12.646Z,1.95
2023-01-19T19:22:40.065Z,2.08
2023-01-19T19:25:07.380Z,1.83
2023-01-19T19:27:34.557Z,3.00
2023-01-19T19:30:01.840Z,3.53
2023-01-19T19:32:29.075Z,12.27
2023-01-19T19:34:58.103Z,9.30
2023-01-19T19:37:25.754Z,15.60
2023-01-19T19:39:52.884Z,12.35
2023-01-19T19:42:20.070Z,10.23
2023-01-19T19:44:47.953Z,9.25
2023-01-19T19:47:15.154Z,7.25
2023-01-19T19:49:42.303Z,3.28
2023-01-19T19:52:09.489Z,2.53
2023-01-19T19:54:36.730Z,3.05
2023-01-19T19:57:04.339Z,3.17
2023-01-19T19:59:31.542Z,2.58
2023-01-19T20:01:58.762Z,2.55
2023-01-19T20:04:26.004Z,2.92
2023-01-19T20:06:53.227Z,2.72
2023-01-19T20:09:20.461Z,3.47
2023-01-19T20:11:49.086Z,3.15
2023-01-19T20:14:16.418Z,2.58
2023-01-19T20:16:43.924Z,3.13
2023-01-19T20:19:11.519Z,2.80
2023-01-19T20:21:41.587Z,3.28
2023-01-19T20:24:10.702Z,2.67
2023-01-19T20:26:40.276Z,2.30
2023-01-19T20:29:07.617Z,2.10
2023-01-19T20:31:37.136Z,2.22
2023-01-19T20:34:05.908Z,1.73
2023-01-19T20:36:33.557Z,1.80
2023-01-19T20:39:02.798Z,2.10
2023-01-19T20:41:29.974Z,1.50
2023-01-19T20:43:57.182Z,1.25
2023-01-19T20:46:24.418Z,1.30
2023-01-19T20:48:53.629Z,2.40
2023-01-19T20:51:21.200Z,1.63
2023-01-19T20:53:48.734Z,1.70
2023-01-19T20:56:16.930Z,2.17
2023-01-19T20:58:44.196Z,1.35
2023-01-19T21:01:16.852Z,1.00
2023-01-19T21:03:44.365Z,1.10
2023-01-19T21:06:12.125Z,0.90
2023-01-19T21:08:39.876Z,2.00
2023-01-19T21:11:07.434Z,0.70
2023-01-19T21:13:35.010Z,0.70
2023-01-19T21:16:02.297Z,1.08
2023-01-19T21:18:29.526Z,0.80
2023-01-19T21:21:00.151Z,1.00
2023-01-19T21:23:27.898Z,0.88
2023-01-19T21:25:59.371Z,1.25
2023-01-19T21:28:27.564Z,1.98
2023-01-19T21:30:55.984Z,0.98
2023-01-19T21:33:23.668Z,0.77
2023-01-19T21:35:54.367Z,1.10
2023-01-19T21:38:22.389Z,2.05
2023-01-19T21:40:50.367Z,0.90
2023-01-19T21:43:19.366Z,1.02
2023-01-19T21:45:47.498Z,1.08
2023-01-19T21:48:14.872Z,0.93
2023-01-19T21:50:42.074Z,1.00
2023-01-19T21:53:11.293Z,1.00
2023-01-19T21:55:38.706Z,0.73
2023-01-19T21:58:05.857Z,0.88
2023-01-19T22:00:33.130Z,0.85
2023-01-19T22:03:04.316Z,1.30
2023-01-19T22:05:36.346Z,0.90
2023-01-19T22:08:04.071Z,0.60
2023-01-19T22:10:31.262Z,0.80
2023-01-19T22:12:58.554Z,1.10
2023-01-19T22:15:25.788Z,0.90
2023-01-19T22:17:52.971Z,0.85
2023-01-19T22:20:20.278Z,0.77
2023-01-19T22:22:47.610Z,0.93
2023-01-19T22:25:15.235Z,0.82
2023-01-19T22:27:42.680Z,0.93
2023-01-19T22:30:10.114Z,1.10
2023-01-19T22:32:37.289Z,1.20
2023-01-19T22:35:04.636Z,1.08
2023-01-19T22:37:35.739Z,1.20
2023-01-19T22:40:03.543Z,1.13
2023-01-19T22:42:30.744Z,1.10
2023-01-19T22:44:57.905Z,1.10
2023-01-19T22:47:25.055Z,0.90
2023-01-19T22:49:52.221Z,1.38
2023-01-19T22:52:19.435Z,0.93
2023-01-19T22:54:46.612Z,1.17
2023-01-19T22:57:13.794Z,1.33
2023-01-19T22:59:41.557Z,0.90
2023-01-19T23:02:09.175Z,0.70
2023-01-19T23:04:36.432Z,0.88
2023-01-19T23:07:03.589Z,0.90
2023-01-19T23:09:30.780Z,0.93
2023-01-19T23:11:58.670Z,0.70
2023-01-19T23:14:25.850Z,0.63
2023-01-19T23:16:53.097Z,0.88
2023-01-19T23:19:20.317Z,0.88
2023-01-19T23:21:47.496Z,0.88
2023-01-19T23:24:14.687Z,0.68
2023-01-19T23:26:41.904Z,0.60
2023-01-19T23:29:12.505Z,0.90
2023-01-19T23:31:40.638Z,0.80
2023-01-19T23:34:09.071Z,0.85
2023-01-19T23:36:37.697Z,0.90
2023-01-19T23:39:06.493Z,0.70
2023-01-19T23:41:34.602Z,0.75
2023-01-19T23:44:02.008Z,0.60
2023-01-19T23:46:29.756Z,0.50
2023-01-19T23:48:57.049Z,0.60
2023-01-19T23:51:26.241Z,0.50
2023-01-19T23:53:53.863Z,0.63
2023-01-19T23:56:25.641Z,0.35
2023-01-19T23:58:59.737Z,0.50
